Aérodrome :







RETROUVEZ-NOUS SUR...

 
LOGIN :

S'inscrire | Disclaimer

   EN    FR    IT 

 









Légende :    VFR   VFR Marginal   IFR   IFR Intensif   IFR Très Intensif
Visi : 
Plafond : 
>= 8 km
>= 3000ft
5 à 8 km
1000 à 3000 ft
1500m à 5 km
500 à 1000 ft
800 à 1500m
200 à 500 ft
< 800m
< 200 ft
Symboles :   Orages  Brouillard  Fortes neiges  Fortes précipitations  Vent > 20 kt






- Altitude de l'aérodrome : 626 ft


KCAR - Caribou Municipal

DERNIER METAR :
  • 230154Z AUTO 25007KT 10SM FEW120 M03/M08 A2993 RMK AO2 SLP147 T10281078

METARs EXPIRÉS :
  • 230054Z AUTO 24008KT 10SM CLR M02/M08 A2992 RMK AO2 SLP146 T10221078
  • 222354Z AUTO 25006KT 10SM CLR M02/M08 A2991 RMK AO2 SLP144 T10221078 10017 21028 53015

TAF KCAR
Valide du 23 à 00h jusqu'au 24 à 00h UTC


222320Z 2300/2324 24006KT P6SM BKN040 WS020/27035KT
FM230900 22004KT P6SM BKN028
FM231500 23006KT P6SM BKN040



MET'MAP, la Météo Aéronautique d'un coup d'oeil ! - Copyright ORBIFLY Décembre 2007 - Disclaimer

ORBIFLY MET'MAP TEAM :

Programmation & Développement : Alexandra Zaïnal
Sur une idée originale de : Baudouin d'Aumeries
Assistance à la programmation : Marc-Olivier Méhu
Soutien technique & logistique : Manuel Goepfert

Contact : metmap@orbifly.com




SOURCES & CREDITS :

   NOAA